Geroi Shipki — EOIB — position and weather

sailwx.info

Track history (hours):
 
Tides and Currents Weather Stations Pressure Air Temp Water Temp Dewpoint Dewpoint Depression Visibility Wind Speed Wind Dir Waves Ship Positions

Geroi Shipki

Last reported at 2015-Jan-28 06:17 UTC. Time now 2015-Jan-29 16:21 UTC.
Position N 44°07' E 033°55'.

Length 184 m; draft 6 m.

Type: Cargo ship. MMSI: 272976000.

Date/timePositionNaut miles runAvg speedWind from/ knotsBaromVisibWave heightAir tempDewpointWater temp
2015-Jan-28 06:17N 44°07' E 033°55'9 7.9
2015-Jan-28 05:12N 44°04' E 034°06'6 8.4
2015-Jan-28 04:31N 44°03' E 034°14'8 8.5
2015-Jan-28 03:33N 43°60' E 034°24'9 8.3
2015-Jan-28 02:31N 43°57' E 034°36'  
2015-Jan-21 20:14N 42°32' E 039°02'49 8.6
2015-Jan-21 14:33N 42°42' E 037°57'9 8.5
2015-Jan-21 13:33N 42°44' E 037°46'8 8.5
2015-Jan-21 12:33N 42°46' E 037°35'1010.4
2015-Jan-21 11:33N 42°48' E 037°21'3912.3
2015-Jan-21 08:24N 42°56' E 036°29'1512.7
2015-Jan-21 07:13N 42°60' E 036°09'297 6.4
2015-Jan-19 09:07N 46°06' E 030°45'5 8.4
2015-Jan-19 08:33N 46°10' E 030°43'8 8.4
2015-Jan-19 07:33N 46°19' E 030°42'  
Track history (hours):
 
Tides and Currents Weather Stations Pressure Air Temp Water Temp Dewpoint Dewpoint Depression Visibility Wind Speed Wind Dir Waves Ship Positions

Geroi Shipki

Last reported at 2015-Jan-28 06:17 UTC. Time now 2015-Jan-29 16:21 UTC.
Position N 44°07' E 033°55'.

Length 184 m; draft 6 m.

Type: Cargo ship. MMSI: 272976000.

Date/timePositionNaut miles runAvg speedWind from/ knotsBaromVisibWave heightAir tempDewpointWater temp
2015-Jan-28 06:17N 44°07' E 033°55'9 7.9
2015-Jan-28 05:12N 44°04' E 034°06'6 8.4
2015-Jan-28 04:31N 44°03' E 034°14'8 8.5
2015-Jan-28 03:33N 43°60' E 034°24'9 8.3
2015-Jan-28 02:31N 43°57' E 034°36'  
2015-Jan-21 20:14N 42°32' E 039°02'49 8.6
2015-Jan-21 14:33N 42°42' E 037°57'9 8.5
2015-Jan-21 13:33N 42°44' E 037°46'8 8.5
2015-Jan-21 12:33N 42°46' E 037°35'1010.4
2015-Jan-21 11:33N 42°48' E 037°21'3912.3
2015-Jan-21 08:24N 42°56' E 036°29'1512.7
2015-Jan-21 07:13N 42°60' E 036°09'297 6.4
2015-Jan-19 09:07N 46°06' E 030°45'5 8.4
2015-Jan-19 08:33N 46°10' E 030°43'8 8.4
2015-Jan-19 07:33N 46°19' E 030°42'  

Dump ship's entire track history